Maryville, Tennessee
Current Conditions -  °F | °C
As of 4:53 PM on Monday 20 Oct 2014 (Local Time) from KTYS Reporting Station
Overcast Overcast  
Wind Chill: 64°   Ceiling: 11000
Heat Index: 64°   Visibility: 10mi
Dew Point: 51°   Wind: 8mph
Humidity: 63%   Direction: 270°W
Pressure: 29.98"   Gusts: NA
Location:  35.75°N, 83.97°W
Report Text: KTYS 202053Z 27007KT 10SM FEW033 FEW090 BKN110 OVC250 18/11 A2998 RMK AO2 RAB40E49 SLP147 VIRGA ALQDS P0000 60000 T01780106 56015
Loading
Personal Weather Stations






























Interactive Weather Map
Tropical Storm Tracking
New forecast layout! Learn more

10-Day Weather Forecast

Advertisements
Track Severe Weather on mobile